sensor_id;sensor_type;location;lat;lon;timestamp;pressure;altitude;pressure_sealevel;temperature;humidity
6345;BME280;3205;42.666;23.264;2023-07-13T00:02:06;94693.25;;;22.84;100.00
6345;BME280;3205;42.666;23.264;2023-07-13T00:04:33;94704.00;;;22.87;100.00
6345;BME280;3205;42.666;23.264;2023-07-13T00:06:59;94693.31;;;22.80;100.00
6345;BME280;3205;42.666;23.264;2023-07-13T00:09:25;94684.84;;;22.78;100.00
6345;BME280;3205;42.666;23.264;2023-07-13T00:11:54;94691.00;;;22.75;100.00
6345;BME280;3205;42.666;23.264;2023-07-13T00:14:20;94685.28;;;22.73;100.00
6345;BME280;3205;42.666;23.264;2023-07-13T00:16:47;94683.81;;;22.65;100.00
6345;BME280;3205;42.666;23.264;2023-07-13T00:19:14;94669.59;;;22.65;100.00
6345;BME280;3205;42.666;23.264;2023-07-13T00:21:41;94673.78;;;22.66;100.00
6345;BME280;3205;42.666;23.264;2023-07-13T00:24:07;94677.72;;;22.61;100.00
6345;BME280;3205;42.666;23.264;2023-07-13T00:26:35;94674.25;;;22.61;100.00
6345;BME280;3205;42.666;23.264;2023-07-13T00:29:01;94669.97;;;22.63;100.00
6345;BME280;3205;42.666;23.264;2023-07-13T00:31:27;94667.25;;;22.67;100.00
6345;BME280;3205;42.666;23.264;2023-07-13T00:33:53;94671.97;;;22.59;100.00
6345;BME280;3205;42.666;23.264;2023-07-13T00:36:20;94664.38;;;22.47;100.00
6345;BME280;3205;42.666;23.264;2023-07-13T00:38:47;94665.88;;;22.48;100.00
6345;BME280;3205;42.666;23.264;2023-07-13T00:41:13;94669.41;;;22.45;100.00
6345;BME280;3205;42.666;23.264;2023-07-13T00:43:40;94678.72;;;22.38;100.00
6345;BME280;3205;42.666;23.264;2023-07-13T00:46:26;94674.16;;;22.28;100.00
6345;BME280;3205;42.666;23.264;2023-07-13T00:48:53;94683.47;;;22.20;100.00
6345;BME280;3205;42.666;23.264;2023-07-13T00:51:27;94673.53;;;22.10;100.00
6345;BME280;3205;42.666;23.264;2023-07-13T00:53:56;94670.88;;;22.06;100.00
6345;BME280;3205;42.666;23.264;2023-07-13T00:56:24;94675.03;;;22.14;100.00
6345;BME280;3205;42.666;23.264;2023-07-13T00:58:50;94672.28;;;22.21;100.00
6345;BME280;3205;42.666;23.264;2023-07-13T01:01:16;94676.13;;;22.20;100.00
6345;BME280;3205;42.666;23.264;2023-07-13T01:03:43;94671.16;;;22.19;100.00
6345;BME280;3205;42.666;23.264;2023-07-13T01:06:09;94660.06;;;22.10;100.00
6345;BME280;3205;42.666;23.264;2023-07-13T01:08:36;94672.75;;;22.13;100.00
6345;BME280;3205;42.666;23.264;2023-07-13T01:11:02;94671.97;;;22.12;100.00
6345;BME280;3205;42.666;23.264;2023-07-13T01:13:28;94665.13;;;22.04;100.00
6345;BME280;3205;42.666;23.264;2023-07-13T01:15:56;94667.06;;;22.04;100.00
6345;BME280;3205;42.666;23.264;2023-07-13T01:18:26;94675.19;;;21.97;100.00
6345;BME280;3205;42.666;23.264;2023-07-13T01:20:54;94670.63;;;21.90;100.00
6345;BME280;3205;42.666;23.264;2023-07-13T01:23:20;94668.31;;;21.89;100.00
6345;BME280;3205;42.666;23.264;2023-07-13T01:25:50;94654.09;;;21.88;100.00
6345;BME280;3205;42.666;23.264;2023-07-13T01:28:16;94661.78;;;21.90;100.00
6345;BME280;3205;42.666;23.264;2023-07-13T01:30:43;94657.22;;;21.83;100.00
6345;BME280;3205;42.666;23.264;2023-07-13T01:33:11;94655.72;;;21.79;100.00
6345;BME280;3205;42.666;23.264;2023-07-13T01:35:39;94653.78;;;21.79;100.00
6345;BME280;3205;42.666;23.264;2023-07-13T01:38:06;94654.59;;;21.76;100.00
6345;BME280;3205;42.666;23.264;2023-07-13T01:40:34;94655.00;;;21.68;100.00
6345;BME280;3205;42.666;23.264;2023-07-13T01:43:01;94649.69;;;21.61;100.00
6345;BME280;3205;42.666;23.264;2023-07-13T01:45:27;94650.09;;;21.60;100.00
6345;BME280;3205;42.666;23.264;2023-07-13T01:47:53;94651.69;;;21.47;100.00
6345;BME280;3205;42.666;23.264;2023-07-13T01:50:19;94642.84;;;21.50;100.00
6345;BME280;3205;42.666;23.264;2023-07-13T01:52:46;94644.75;;;21.49;100.00
6345;BME280;3205;42.666;23.264;2023-07-13T01:55:13;94650.16;;;21.46;100.00
6345;BME280;3205;42.666;23.264;2023-07-13T01:57:39;94651.66;;;21.57;100.00
6345;BME280;3205;42.666;23.264;2023-07-13T02:00:10;94650.50;;;21.51;100.00
6345;BME280;3205;42.666;23.264;2023-07-13T02:02:36;94657.81;;;21.54;100.00
6345;BME280;3205;42.666;23.264;2023-07-13T02:05:03;94662.03;;;21.52;100.00
6345;BME280;3205;42.666;23.264;2023-07-13T02:07:29;94662.81;;;21.56;100.00
6345;BME280;3205;42.666;23.264;2023-07-13T02:09:55;94660.13;;;21.49;100.00
6345;BME280;3205;42.666;23.264;2023-07-13T02:12:22;94667.06;;;21.46;100.00
6345;BME280;3205;42.666;23.264;2023-07-13T02:14:48;94664.75;;;21.45;100.00
6345;BME280;3205;42.666;23.264;2023-07-13T02:17:14;94679.31;;;21.51;100.00
6345;BME280;3205;42.666;23.264;2023-07-13T02:19:40;94665.53;;;21.45;100.00
6345;BME280;3205;42.666;23.264;2023-07-13T02:22:06;94667.84;;;21.43;100.00
6345;BME280;3205;42.666;23.264;2023-07-13T02:24:32;94664.06;;;21.30;100.00
6345;BME280;3205;42.666;23.264;2023-07-13T02:29:25;94676.78;;;21.23;100.00
6345;BME280;3205;42.666;23.264;2023-07-13T02:31:51;94675.59;;;21.27;100.00
6345;BME280;3205;42.666;23.264;2023-07-13T02:34:17;94672.94;;;21.20;100.00
6345;BME280;3205;42.666;23.264;2023-07-13T02:36:43;94672.94;;;21.20;100.00
6345;BME280;3205;42.666;23.264;2023-07-13T02:39:11;94674.06;;;21.26;100.00
6345;BME280;3205;42.666;23.264;2023-07-13T02:41:38;94669.91;;;21.18;100.00
6345;BME280;3205;42.666;23.264;2023-07-13T02:44:04;94668.75;;;21.16;100.00
6345;BME280;3205;42.666;23.264;2023-07-13T02:46:31;94668.75;;;21.16;100.00
6345;BME280;3205;42.666;23.264;2023-07-13T02:48:57;94668.38;;;21.14;100.00
6345;BME280;3205;42.666;23.264;2023-07-13T02:51:23;94672.97;;;21.13;100.00
6345;BME280;3205;42.666;23.264;2023-07-13T02:53:49;94658.81;;;21.06;100.00
6345;BME280;3205;42.666;23.264;2023-07-13T02:56:15;94675.72;;;21.03;100.00
6345;BME280;3205;42.666;23.264;2023-07-13T02:58:41;94673.44;;;21.01;100.00
6345;BME280;3205;42.666;23.264;2023-07-13T03:01:08;94671.88;;;21.04;100.00
6345;BME280;3205;42.666;23.264;2023-07-13T03:03:36;94677.28;;;20.97;100.00
6345;BME280;3205;42.666;23.264;2023-07-13T03:06:03;94676.94;;;20.92;100.00
6345;BME280;3205;42.666;23.264;2023-07-13T03:08:30;94685.00;;;20.88;100.00
6345;BME280;3205;42.666;23.264;2023-07-13T03:11:00;94675.78;;;20.86;100.00
6345;BME280;3205;42.666;23.264;2023-07-13T03:13:26;94676.53;;;20.93;100.00
6345;BME280;3205;42.666;23.264;2023-07-13T03:15:52;94680.78;;;20.91;100.00
6345;BME280;3205;42.666;23.264;2023-07-13T03:18:18;94679.16;;;21.07;100.00
6345;BME280;3205;42.666;23.264;2023-07-13T03:20:45;94686.84;;;21.08;100.00
6345;BME280;3205;42.666;23.264;2023-07-13T03:23:11;94692.56;;;21.21;100.00
6345;BME280;3205;42.666;23.264;2023-07-13T03:25:37;94672.09;;;21.37;100.00
6345;BME280;3205;42.666;23.264;2023-07-13T03:28:04;94685.63;;;21.88;100.00
6345;BME280;3205;42.666;23.264;2023-07-13T03:30:31;94686.03;;;22.37;100.00
6345;BME280;3205;42.666;23.264;2023-07-13T03:32:57;94691.22;;;22.58;100.00
6345;BME280;3205;42.666;23.264;2023-07-13T03:35:23;94690.09;;;22.52;100.00
6345;BME280;3205;42.666;23.264;2023-07-13T03:37:49;94690.97;;;22.42;100.00
6345;BME280;3205;42.666;23.264;2023-07-13T03:40:16;94689.75;;;22.50;100.00
6345;BME280;3205;42.666;23.264;2023-07-13T03:42:42;94690.41;;;22.98;100.00
6345;BME280;3205;42.666;23.264;2023-07-13T03:45:09;94688.50;;;23.88;100.00
6345;BME280;3205;42.666;23.264;2023-07-13T03:47:35;94689.13;;;24.67;100.00
6345;BME280;3205;42.666;23.264;2023-07-13T03:50:01;94693.19;;;25.17;100.00
6345;BME280;3205;42.666;23.264;2023-07-13T03:52:27;94691.53;;;25.78;100.00
6345;BME280;3205;42.666;23.264;2023-07-13T03:54:54;94701.84;;;26.34;100.00
6345;BME280;3205;42.666;23.264;2023-07-13T03:57:20;94692.88;;;26.97;100.00
6345;BME280;3205;42.666;23.264;2023-07-13T03:59:46;94685.03;;;27.56;100.00
6345;BME280;3205;42.666;23.264;2023-07-13T04:02:12;94688.69;;;28.15;100.00
6345;BME280;3205;42.666;23.264;2023-07-13T04:04:38;94693.63;;;28.66;100.00
6345;BME280;3205;42.666;23.264;2023-07-13T04:07:06;94690.19;;;29.42;100.00
6345;BME280;3205;42.666;23.264;2023-07-13T04:09:34;94684.84;;;30.12;100.00
6345;BME280;3205;42.666;23.264;2023-07-13T04:12:02;94690.63;;;30.88;100.00
6345;BME280;3205;42.666;23.264;2023-07-13T04:14:28;94703.25;;;31.40;94.40
6345;BME280;3205;42.666;23.264;2023-07-13T04:16:54;94692.31;;;31.75;93.78
6345;BME280;3205;42.666;23.264;2023-07-13T04:19:20;94689.13;;;32.18;87.46
6345;BME280;3205;42.666;23.264;2023-07-13T04:21:46;94687.75;;;32.78;82.87
6345;BME280;3205;42.666;23.264;2023-07-13T04:24:13;94694.16;;;33.22;80.10
6345;BME280;3205;42.666;23.264;2023-07-13T04:26:39;94692.72;;;33.79;79.55
6345;BME280;3205;42.666;23.264;2023-07-13T04:29:06;94698.69;;;34.20;77.70
6345;BME280;3205;42.666;23.264;2023-07-13T04:31:33;94706.50;;;34.42;72.58
6345;BME280;3205;42.666;23.264;2023-07-13T04:33:59;94706.53;;;34.96;68.98
6345;BME280;3205;42.666;23.264;2023-07-13T04:36:25;94713.06;;;35.38;69.96
6345;BME280;3205;42.666;23.264;2023-07-13T04:38:52;94718.84;;;36.11;64.95
6345;BME280;3205;42.666;23.264;2023-07-13T04:41:20;94718.34;;;35.87;63.05
6345;BME280;3205;42.666;23.264;2023-07-13T04:43:47;94723.81;;;36.37;61.16
6345;BME280;3205;42.666;23.264;2023-07-13T04:46:16;94716.53;;;36.65;57.04
6345;BME280;3205;42.666;23.264;2023-07-13T04:48:43;94729.66;;;36.45;57.51
6345;BME280;3205;42.666;23.264;2023-07-13T04:51:09;94720.91;;;35.25;64.30
6345;BME280;3205;42.666;23.264;2023-07-13T04:53:35;94730.38;;;36.15;60.12
6345;BME280;3205;42.666;23.264;2023-07-13T04:56:02;94719.84;;;37.16;56.23
6345;BME280;3205;42.666;23.264;2023-07-13T04:58:29;94725.78;;;37.68;52.85
6345;BME280;3205;42.666;23.264;2023-07-13T05:01:00;94732.66;;;37.99;51.50
6345;BME280;3205;42.666;23.264;2023-07-13T05:03:26;94740.22;;;38.59;48.30
6345;BME280;3205;42.666;23.264;2023-07-13T05:05:57;94733.41;;;38.87;47.31
6345;BME280;3205;42.666;23.264;2023-07-13T05:08:24;94728.53;;;39.32;46.47
6345;BME280;3205;42.666;23.264;2023-07-13T05:10:50;94734.25;;;40.01;43.74
6345;BME280;3205;42.666;23.264;2023-07-13T05:13:16;94733.84;;;40.21;42.36
6345;BME280;3205;42.666;23.264;2023-07-13T05:15:42;94741.59;;;39.37;42.90
6345;BME280;3205;42.666;23.264;2023-07-13T05:18:08;94746.50;;;39.65;42.88
6345;BME280;3205;42.666;23.264;2023-07-13T05:20:35;94748.97;;;40.20;41.62
6345;BME280;3205;42.666;23.264;2023-07-13T05:23:01;94739.50;;;40.45;39.93
6345;BME280;3205;42.666;23.264;2023-07-13T05:25:27;94741.22;;;40.48;39.17
6345;BME280;3205;42.666;23.264;2023-07-13T05:27:53;94749.84;;;40.39;38.18
6345;BME280;3205;42.666;23.264;2023-07-13T05:30:22;94750.88;;;41.42;37.44
6345;BME280;3205;42.666;23.264;2023-07-13T05:32:48;94745.94;;;41.78;37.75
6345;BME280;3205;42.666;23.264;2023-07-13T05:35:14;94744.28;;;42.06;35.26
6345;BME280;3205;42.666;23.264;2023-07-13T05:37:40;94745.47;;;42.10;35.29
6345;BME280;3205;42.666;23.264;2023-07-13T05:40:07;94758.84;;;42.12;35.94
6345;BME280;3205;42.666;23.264;2023-07-13T05:42:33;94755.97;;;42.36;35.95
6345;BME280;3205;42.666;23.264;2023-07-13T05:44:59;94757.22;;;42.66;33.94
6345;BME280;3205;42.666;23.264;2023-07-13T05:47:26;94755.28;;;42.79;34.58
6345;BME280;3205;42.666;23.264;2023-07-13T05:49:52;94765.47;;;43.03;33.49
6345;BME280;3205;42.666;23.264;2023-07-13T05:52:18;94757.69;;;43.14;33.85
6345;BME280;3205;42.666;23.264;2023-07-13T05:54:44;94753.41;;;43.39;32.29
6345;BME280;3205;42.666;23.264;2023-07-13T05:57:10;94753.72;;;44.54;30.59
6345;BME280;3205;42.666;23.264;2023-07-13T05:59:36;94757.06;;;44.93;28.75
6345;BME280;3205;42.666;23.264;2023-07-13T06:02:03;94749.47;;;45.49;28.47
6345;BME280;3205;42.666;23.264;2023-07-13T06:04:29;94737.78;;;43.36;29.60
6345;BME280;3205;42.666;23.264;2023-07-13T06:06:55;94735.47;;;43.99;29.62
6345;BME280;3205;42.666;23.264;2023-07-13T06:09:21;94736.53;;;43.96;29.18
6345;BME280;3205;42.666;23.264;2023-07-13T06:11:48;94746.22;;;44.16;29.63
6345;BME280;3205;42.666;23.264;2023-07-13T06:14:14;94749.16;;;44.43;29.76
6345;BME280;3205;42.666;23.264;2023-07-13T06:16:40;94757.41;;;44.69;30.09
6345;BME280;3205;42.666;23.264;2023-07-13T06:19:06;94753.88;;;45.37;28.90
6345;BME280;3205;42.666;23.264;2023-07-13T06:21:32;94756.28;;;45.69;28.03
6345;BME280;3205;42.666;23.264;2023-07-13T06:23:59;94751.50;;;45.21;28.77
6345;BME280;3205;42.666;23.264;2023-07-13T06:26:25;94757.50;;;45.25;29.02
6345;BME280;3205;42.666;23.264;2023-07-13T06:28:52;94760.22;;;46.08;28.81
6345;BME280;3205;42.666;23.264;2023-07-13T06:31:18;94763.31;;;46.40;28.79
6345;BME280;3205;42.666;23.264;2023-07-13T06:33:44;94754.50;;;44.75;28.82
6345;BME280;3205;42.666;23.264;2023-07-13T06:36:10;94755.28;;;45.31;28.46
6345;BME280;3205;42.666;23.264;2023-07-13T06:38:37;94759.41;;;45.65;28.48
6345;BME280;3205;42.666;23.264;2023-07-13T06:41:06;94756.28;;;45.41;27.66
6345;BME280;3205;42.666;23.264;2023-07-13T06:43:32;94742.25;;;46.69;27.55
6345;BME280;3205;42.666;23.264;2023-07-13T06:45:59;94743.22;;;46.94;26.84
6345;BME280;3205;42.666;23.264;2023-07-13T06:48:26;94753.13;;;47.94;25.67
6345;BME280;3205;42.666;23.264;2023-07-13T06:50:52;94750.34;;;48.65;23.66
6345;BME280;3205;42.666;23.264;2023-07-13T06:53:19;94750.72;;;47.90;23.78
6345;BME280;3205;42.666;23.264;2023-07-13T06:55:46;94751.59;;;48.08;24.23
6345;BME280;3205;42.666;23.264;2023-07-13T06:58:15;94746.81;;;47.86;24.21
6345;BME280;3205;42.666;23.264;2023-07-13T07:00:41;94747.13;;;47.97;23.99
6345;BME280;3205;42.666;23.264;2023-07-13T07:03:08;94748.53;;;47.74;24.28
6345;BME280;3205;42.666;23.264;2023-07-13T07:05:34;94751.06;;;47.25;25.70
6345;BME280;3205;42.666;23.264;2023-07-13T07:08:00;94736.69;;;47.06;25.96
6345;BME280;3205;42.666;23.264;2023-07-13T07:10:28;94750.28;;;47.02;24.47
6345;BME280;3205;42.666;23.264;2023-07-13T07:12:55;94747.47;;;47.25;24.99
6345;BME280;3205;42.666;23.264;2023-07-13T07:15:21;94747.31;;;47.30;25.01
6345;BME280;3205;42.666;23.264;2023-07-13T07:17:47;94749.50;;;45.01;25.62
6345;BME280;3205;42.666;23.264;2023-07-13T07:20:14;94745.09;;;45.69;26.90
6345;BME280;3205;42.666;23.264;2023-07-13T07:22:40;94737.94;;;46.46;26.23
6345;BME280;3205;42.666;23.264;2023-07-13T07:25:06;94739.03;;;46.35;26.00
6345;BME280;3205;42.666;23.264;2023-07-13T07:27:33;94741.94;;;46.15;25.58
6345;BME280;3205;42.666;23.264;2023-07-13T07:29:59;94741.81;;;47.62;25.31
6345;BME280;3205;42.666;23.264;2023-07-13T07:32:25;94735.09;;;47.65;25.15
6345;BME280;3205;42.666;23.264;2023-07-13T07:34:52;94739.66;;;48.00;24.49
6345;BME280;3205;42.666;23.264;2023-07-13T07:37:18;94727.63;;;48.46;24.28
6345;BME280;3205;42.666;23.264;2023-07-13T07:39:44;94734.44;;;49.08;22.85
6345;BME280;3205;42.666;23.264;2023-07-13T07:42:11;94734.66;;;48.86;22.58
6345;BME280;3205;42.666;23.264;2023-07-13T07:44:39;94725.38;;;48.52;23.19
6345;BME280;3205;42.666;23.264;2023-07-13T07:47:06;94721.91;;;49.85;22.79
6345;BME280;3205;42.666;23.264;2023-07-13T07:49:32;94710.34;;;47.02;24.14
6345;BME280;3205;42.666;23.264;2023-07-13T07:51:58;94725.66;;;46.63;25.17
6345;BME280;3205;42.666;23.264;2023-07-13T07:54:25;94719.44;;;48.01;24.30
6345;BME280;3205;42.666;23.264;2023-07-13T07:56:51;94709.84;;;48.12;24.15
6345;BME280;3205;42.666;23.264;2023-07-13T07:59:18;94705.94;;;48.07;23.98
6345;BME280;3205;42.666;23.264;2023-07-13T08:01:45;94709.91;;;47.42;24.68
6345;BME280;3205;42.666;23.264;2023-07-13T08:04:13;94691.78;;;44.55;26.82
6345;BME280;3205;42.666;23.264;2023-07-13T08:06:39;94697.78;;;44.39;27.46
6345;BME280;3205;42.666;23.264;2023-07-13T08:09:05;94691.59;;;44.33;28.07
6345;BME280;3205;42.666;23.264;2023-07-13T08:11:32;94684.47;;;42.62;30.28
6345;BME280;3205;42.666;23.264;2023-07-13T08:13:58;94677.16;;;43.03;30.63
6345;BME280;3205;42.666;23.264;2023-07-13T08:16:24;94682.06;;;43.95;29.34
6345;BME280;3205;42.666;23.264;2023-07-13T08:18:51;94680.81;;;44.98;28.43
6345;BME280;3205;42.666;23.264;2023-07-13T08:21:17;94677.75;;;41.95;31.91
6345;BME280;3205;42.666;23.264;2023-07-13T08:23:45;94681.28;;;42.27;31.26
6345;BME280;3205;42.666;23.264;2023-07-13T08:26:11;94675.47;;;42.12;31.32
6345;BME280;3205;42.666;23.264;2023-07-13T08:28:38;94668.91;;;42.98;30.61
6345;BME280;3205;42.666;23.264;2023-07-13T08:31:06;94676.09;;;44.65;29.34
6345;BME280;3205;42.666;23.264;2023-07-13T08:33:34;94679.56;;;45.84;27.40
6345;BME280;3205;42.666;23.264;2023-07-13T08:36:00;94678.50;;;45.52;26.95
6345;BME280;3205;42.666;23.264;2023-07-13T08:38:26;94667.00;;;43.19;29.25
6345;BME280;3205;42.666;23.264;2023-07-13T08:40:55;94662.50;;;44.21;29.85
6345;BME280;3205;42.666;23.264;2023-07-13T08:43:25;94657.94;;;45.35;28.05
6345;BME280;3205;42.666;23.264;2023-07-13T08:45:58;94666.44;;;44.13;28.56
6345;BME280;3205;42.666;23.264;2023-07-13T08:48:28;94668.31;;;43.77;29.62
6345;BME280;3205;42.666;23.264;2023-07-13T08:50:58;94665.22;;;45.38;28.29
6345;BME280;3205;42.666;23.264;2023-07-13T08:53:32;94676.31;;;46.08;25.50
6345;BME280;3205;42.666;23.264;2023-07-13T08:56:00;94664.97;;;46.36;26.00
6345;BME280;3205;42.666;23.264;2023-07-13T08:58:27;94663.50;;;47.71;24.58
6345;BME280;3205;42.666;23.264;2023-07-13T09:01:05;94676.72;;;48.18;24.73
6345;BME280;3205;42.666;23.264;2023-07-13T09:03:40;94683.09;;;46.50;26.04
6345;BME280;3205;42.666;23.264;2023-07-13T09:06:12;94691.38;;;45.98;26.35
6345;BME280;3205;42.666;23.264;2023-07-13T09:08:48;94692.78;;;45.06;26.80
6345;BME280;3205;42.666;23.264;2023-07-13T09:11:26;94698.31;;;44.78;27.42
6345;BME280;3205;42.666;23.264;2023-07-13T09:13:59;94702.91;;;43.94;28.37
6345;BME280;3205;42.666;23.264;2023-07-13T09:16:27;94697.31;;;42.21;29.66
6345;BME280;3205;42.666;23.264;2023-07-13T09:18:58;94681.78;;;42.57;29.97
6345;BME280;3205;42.666;23.264;2023-07-13T09:21:29;94686.75;;;42.32;30.88
6345;BME280;3205;42.666;23.264;2023-07-13T09:24:01;94681.78;;;43.14;31.41
6345;BME280;3205;42.666;23.264;2023-07-13T09:26:28;94692.28;;;43.93;28.68
6345;BME280;3205;42.666;23.264;2023-07-13T09:28:59;94686.31;;;44.09;28.27
6345;BME280;3205;42.666;23.264;2023-07-13T09:31:30;94696.63;;;44.34;27.76
6345;BME280;3205;42.666;23.264;2023-07-13T09:33:59;94673.75;;;43.36;28.75
6345;BME280;3205;42.666;23.264;2023-07-13T09:36:28;94688.34;;;44.42;27.13
6345;BME280;3205;42.666;23.264;2023-07-13T09:38:59;94678.06;;;45.41;28.30
6345;BME280;3205;42.666;23.264;2023-07-13T09:41:35;94680.72;;;45.96;27.53
6345;BME280;3205;42.666;23.264;2023-07-13T09:44:08;94677.66;;;46.74;26.12
6345;BME280;3205;42.666;23.264;2023-07-13T09:46:36;94674.84;;;47.27;25.79
6345;BME280;3205;42.666;23.264;2023-07-13T09:49:04;94678.63;;;46.99;25.86
6345;BME280;3205;42.666;23.264;2023-07-13T09:51:30;94668.25;;;47.39;25.03
6345;BME280;3205;42.666;23.264;2023-07-13T09:53:56;94661.84;;;46.62;25.11
6345;BME280;3205;42.666;23.264;2023-07-13T09:56:27;94665.69;;;46.29;24.82
6345;BME280;3205;42.666;23.264;2023-07-13T09:58:54;94667.63;;;46.79;22.39
6345;BME280;3205;42.666;23.264;2023-07-13T10:01:32;94651.56;;;47.63;21.76
6345;BME280;3205;42.666;23.264;2023-07-13T10:03:59;94656.47;;;47.55;21.51
6345;BME280;3205;42.666;23.264;2023-07-13T10:06:25;94648.03;;;46.71;21.49
6345;BME280;3205;42.666;23.264;2023-07-13T10:08:52;94644.53;;;47.47;22.21
6345;BME280;3205;42.666;23.264;2023-07-13T10:11:21;94646.13;;;46.96;22.15
6345;BME280;3205;42.666;23.264;2023-07-13T10:13:51;94643.34;;;45.64;22.76
6345;BME280;3205;42.666;23.264;2023-07-13T10:16:18;94649.28;;;44.62;22.85
6345;BME280;3205;42.666;23.264;2023-07-13T10:18:48;94643.28;;;43.64;24.73
6345;BME280;3205;42.666;23.264;2023-07-13T10:21:17;94635.09;;;42.81;26.09
6345;BME280;3205;42.666;23.264;2023-07-13T10:23:45;94638.03;;;42.00;27.37
6345;BME280;3205;42.666;23.264;2023-07-13T10:26:17;94640.25;;;41.09;27.25
6345;BME280;3205;42.666;23.264;2023-07-13T10:28:47;94640.88;;;40.79;28.72
6345;BME280;3205;42.666;23.264;2023-07-13T10:31:17;94632.78;;;40.28;29.63
6345;BME280;3205;42.666;23.264;2023-07-13T10:33:43;94638.47;;;39.76;28.74
6345;BME280;3205;42.666;23.264;2023-07-13T10:36:16;94627.91;;;39.35;31.21
6345;BME280;3205;42.666;23.264;2023-07-13T10:38:43;94630.03;;;39.12;32.33
6345;BME280;3205;42.666;23.264;2023-07-13T10:41:15;94625.56;;;38.93;33.00
6345;BME280;3205;42.666;23.264;2023-07-13T10:43:45;94627.88;;;38.78;32.96
6345;BME280;3205;42.666;23.264;2023-07-13T10:46:15;94614.28;;;38.85;32.84
6345;BME280;3205;42.666;23.264;2023-07-13T10:48:43;94617.34;;;38.60;34.35
6345;BME280;3205;42.666;23.264;2023-07-13T10:51:13;94606.09;;;38.42;32.23
6345;BME280;3205;42.666;23.264;2023-07-13T10:53:41;94599.56;;;38.39;34.95
6345;BME280;3205;42.666;23.264;2023-07-13T10:56:21;94601.84;;;38.02;32.95
6345;BME280;3205;42.666;23.264;2023-07-13T10:59:01;94603.88;;;37.80;33.93
6345;BME280;3205;42.666;23.264;2023-07-13T11:01:40;94599.09;;;37.59;33.47
6345;BME280;3205;42.666;23.264;2023-07-13T11:04:11;94588.81;;;37.70;34.78
6345;BME280;3205;42.666;23.264;2023-07-13T11:06:39;94584.78;;;37.60;34.68
6345;BME280;3205;42.666;23.264;2023-07-13T11:09:38;94578.25;;;37.58;34.95
6345;BME280;3205;42.666;23.264;2023-07-13T11:12:10;94578.00;;;37.56;35.14
6345;BME280;3205;42.666;23.264;2023-07-13T11:15:03;94566.44;;;37.41;34.96
6345;BME280;3205;42.666;23.264;2023-07-13T11:17:48;94563.69;;;37.57;37.11
6345;BME280;3205;42.666;23.264;2023-07-13T11:20:33;94561.97;;;37.43;35.32
6345;BME280;3205;42.666;23.264;2023-07-13T11:23:29;94567.44;;;37.32;37.05
6345;BME280;3205;42.666;23.264;2023-07-13T11:25:57;94565.66;;;37.24;35.44
6345;BME280;3205;42.666;23.264;2023-07-13T11:28:25;94557.41;;;37.29;38.41
6345;BME280;3205;42.666;23.264;2023-07-13T11:31:13;94562.44;;;37.36;38.16
6345;BME280;3205;42.666;23.264;2023-07-13T11:33:52;94557.66;;;37.31;36.49
6345;BME280;3205;42.666;23.264;2023-07-13T11:36:21;94560.44;;;37.37;38.17
6345;BME280;3205;42.666;23.264;2023-07-13T11:38:55;94560.19;;;37.35;38.36
6345;BME280;3205;42.666;23.264;2023-07-13T11:41:26;94558.19;;;37.46;38.39
6345;BME280;3205;42.666;23.264;2023-07-13T11:43:55;94554.66;;;37.40;37.55
6345;BME280;3205;42.666;23.264;2023-07-13T11:46:24;94559.94;;;37.33;37.52
6345;BME280;3205;42.666;23.264;2023-07-13T11:48:51;94548.34;;;37.29;38.33
6345;BME280;3205;42.666;23.264;2023-07-13T11:51:21;94544.78;;;37.01;35.04
6345;BME280;3205;42.666;23.264;2023-07-13T11:53:50;94541.31;;;37.12;36.53
6345;BME280;3205;42.666;23.264;2023-07-13T11:56:16;94539.84;;;37.21;37.00
6345;BME280;3205;42.666;23.264;2023-07-13T11:58:43;94539.78;;;36.94;39.16
6345;BME280;3205;42.666;23.264;2023-07-13T12:01:18;94531.16;;;36.70;36.83
6345;BME280;3205;42.666;23.264;2023-07-13T12:03:46;94532.16;;;36.67;39.99
6345;BME280;3205;42.666;23.264;2023-07-13T12:06:24;94525.91;;;36.72;38.61
6345;BME280;3205;42.666;23.264;2023-07-13T12:08:51;94521.88;;;36.73;38.35
6345;BME280;3205;42.666;23.264;2023-07-13T12:11:18;94524.88;;;36.64;39.84
6345;BME280;3205;42.666;23.264;2023-07-13T12:13:46;94518.84;;;36.60;40.74
6345;BME280;3205;42.666;23.264;2023-07-13T12:16:15;94524.41;;;36.71;39.37
6345;BME280;3205;42.666;23.264;2023-07-13T12:18:43;94515.38;;;36.65;38.40
6345;BME280;3205;42.666;23.264;2023-07-13T12:21:13;94506.59;;;36.67;41.13
6345;BME280;3205;42.666;23.264;2023-07-13T12:23:39;94502.31;;;36.55;39.48
6345;BME280;3205;42.666;23.264;2023-07-13T12:26:10;94498.28;;;36.56;40.26
6345;BME280;3205;42.666;23.264;2023-07-13T12:28:38;94498.28;;;36.56;37.96
6345;BME280;3205;42.666;23.264;2023-07-13T12:31:25;94498.31;;;36.61;38.71
6345;BME280;3205;42.666;23.264;2023-07-13T12:33:56;94494.56;;;36.70;38.83
6345;BME280;3205;42.666;23.264;2023-07-13T12:36:23;94490.34;;;36.69;37.43
6345;BME280;3205;42.666;23.264;2023-07-13T12:38:49;94493.56;;;36.56;37.61
6345;BME280;3205;42.666;23.264;2023-07-13T12:41:16;94489.25;;;36.50;38.80
6345;BME280;3205;42.666;23.264;2023-07-13T12:43:45;94481.00;;;36.50;41.48
6345;BME280;3205;42.666;23.264;2023-07-13T12:46:17;94484.25;;;36.48;40.87
6345;BME280;3205;42.666;23.264;2023-07-13T12:48:44;94479.00;;;36.50;39.13
6345;BME280;3205;42.666;23.264;2023-07-13T12:51:12;94474.00;;;36.54;39.10
6345;BME280;3205;42.666;23.264;2023-07-13T12:53:40;94472.00;;;36.60;39.37
6345;BME280;3205;42.666;23.264;2023-07-13T12:56:18;94484.03;;;36.57;37.61
6345;BME280;3205;42.666;23.264;2023-07-13T12:58:45;94475.22;;;36.42;38.46
6345;BME280;3205;42.666;23.264;2023-07-13T13:01:17;94465.47;;;36.52;39.04
6345;BME280;3205;42.666;23.264;2023-07-13T13:03:46;94460.44;;;36.45;39.20
6345;BME280;3205;42.666;23.264;2023-07-13T13:06:22;94458.13;;;36.33;37.65
6345;BME280;3205;42.666;23.264;2023-07-13T13:08:51;94459.31;;;36.16;37.21
6345;BME280;3205;42.666;23.264;2023-07-13T13:11:17;94455.09;;;36.20;39.13
6345;BME280;3205;42.666;23.264;2023-07-13T13:13:44;94457.59;;;36.24;37.54
6345;BME280;3205;42.666;23.264;2023-07-13T13:16:12;94450.09;;;36.24;37.65